Time;durP1;ratioP1;P1;durP2;ratioP2;P2;SDS_P1;SDS_P2;PMS_P1;PMS_P2;Temp;Humidity;BMP_temperature;BMP_pressure;BME280_temperature;BME280_humidity;BME280_pressure;Samples;Min_cycle;Max_cycle;Signal;HPM_P1;HPM_P2
2023/06/10 00:01:08;;;;;;;;;14.67;13.33;;;;;27.02;39.98;100387.72;6189666;23;45000;-64
2023/06/10 00:03:33;;;;;;;;;14.00;13.00;;;;;26.99;39.83;100392.47;6190250;22;45711;-64
2023/06/10 00:05:58;;;;;;;;;13.00;11.00;;;;;27.07;39.98;100406.69;6191523;22;45372;-64
2023/06/10 00:08:24;;;;;;;;;14.33;13.67;;;;;26.99;40.01;100395.22;6192000;22;45051;-66
2023/06/10 00:10:49;;;;;;;;;12.67;9.00;;;;;26.92;40.34;100397.34;6191958;22;45305;-64
2023/06/10 00:13:16;;;;;;;;;9.33;8.67;;;;;26.87;40.25;100385.72;6190889;22;45641;-64
2023/06/10 00:15:42;;;;;;;;;8.00;7.67;;;;;26.80;39.95;100378.75;6190915;22;44925;-63
2023/06/10 00:18:09;;;;;;;;;10.00;10.00;;;;;26.94;40.09;100405.50;6189963;23;45059;-66
2023/06/10 00:20:37;;;;;;;;;8.33;8.33;;;;;26.94;40.02;100403.69;6190789;23;44914;-64
2023/06/10 00:23:03;;;;;;;;;12.67;8.67;;;;;26.94;40.03;100402.75;6191495;22;46095;-64
2023/06/10 00:25:28;;;;;;;;;9.00;7.33;;;;;26.87;40.30;100393.94;6189610;23;44989;-65
2023/06/10 00:27:55;;;;;;;;;10.00;9.00;;;;;26.82;40.10;100379.56;6191221;23;45022;-64
2023/06/10 00:30:21;;;;;;;;;10.67;9.33;;;;;26.86;40.46;100397.66;6191746;22;45036;-63
2023/06/10 00:32:46;;;;;;;;;8.00;8.00;;;;;26.83;40.32;100403.28;6190813;22;45737;-64
2023/06/10 00:35:12;;;;;;;;;10.00;9.67;;;;;26.80;40.69;100401.56;6190244;23;44978;-66
2023/06/10 00:37:38;;;;;;;;;9.33;8.33;;;;;26.76;40.57;100410.00;6191070;22;44964;-66
2023/06/10 00:40:04;;;;;;;;;9.00;9.00;;;;;26.76;41.36;100413.66;6190816;23;45191;-66
2023/06/10 00:42:30;;;;;;;;;11.33;7.67;;;;;26.71;41.15;100417.53;6190188;23;46579;-64
2023/06/10 00:44:55;;;;;;;;;11.33;10.00;;;;;26.56;41.56;100406.28;6189987;23;45077;-64
2023/06/10 00:47:21;;;;;;;;;9.33;8.00;;;;;26.65;41.69;100426.94;6190204;23;44925;-68
2023/06/10 00:49:47;;;;;;;;;10.67;9.00;;;;;26.47;42.05;100406.72;6191559;22;45055;-65
2023/06/10 00:52:15;;;;;;;;;9.67;9.67;;;;;26.48;42.55;100411.22;6190587;22;45179;-64
2023/06/10 00:54:41;;;;;;;;;8.33;8.33;;;;;26.52;42.22;100432.06;6191120;22;45147;-63
2023/06/10 00:57:07;;;;;;;;;9.67;8.33;;;;;26.52;42.42;100423.84;6190980;23;44847;-63
2023/06/10 00:59:32;;;;;;;;;8.67;8.00;;;;;26.52;42.43;100420.22;6191244;22;44952;-62
2023/06/10 01:01:58;;;;;;;;;9.33;9.33;;;;;26.44;42.65;100415.94;6191125;23;45043;-63
2023/06/10 01:04:24;;;;;;;;;9.00;8.67;;;;;26.45;42.99;100427.81;6189911;22;45258;-64
2023/06/10 01:07:12;;;;;;;;;7.67;7.67;;;;;26.29;43.18;100435.81;6190020;22;44910;-65
2023/06/10 01:09:54;;;;;;;;;9.33;8.33;;;;;26.11;43.28;100410.13;6189292;22;45201;-64
2023/06/10 01:12:46;;;;;;;;;8.33;8.33;;;;;26.08;44.06;100430.31;6189317;22;45557;-66
2023/06/10 01:15:12;;;;;;;;;12.67;10.00;;;;;26.02;44.34;100433.34;6147696;22;45248;-64
2023/06/10 01:17:59;;;;;;;;;10.00;10.00;;;;;25.95;44.40;100434.50;6189942;22;45289;-64
2023/06/10 01:20:32;;;;;;;;;9.00;6.67;;;;;25.90;44.50;100429.25;6189332;22;44861;-64
2023/06/10 01:23:02;;;;;;;;;9.00;9.00;;;;;25.85;44.53;100434.00;6188976;22;46154;-64
2023/06/10 01:25:32;;;;;;;;;7.33;7.33;;;;;25.84;44.68;100428.63;6188631;22;45116;-64
2023/06/10 01:28:06;;;;;;;;;7.33;7.33;;;;;25.87;44.74;100436.66;6189074;22;45278;-64
2023/06/10 01:30:38;;;;;;;;;9.00;8.00;;;;;25.79;45.15;100414.19;6191269;23;45437;-64
2023/06/10 01:33:07;;;;;;;;;6.67;6.67;;;;;25.74;45.26;100420.78;6189687;22;45667;-66
2023/06/10 01:35:36;;;;;;;;;7.00;7.00;;;;;25.82;44.75;100430.50;6190828;22;44886;-65
2023/06/10 01:38:03;;;;;;;;;9.33;8.67;;;;;25.86;44.91;100429.44;6191246;22;45153;-64
2023/06/10 01:40:30;;;;;;;;;9.67;8.33;;;;;25.87;45.13;100434.84;6190690;23;45083;-64
2023/06/10 01:42:56;;;;;;;;;8.00;8.00;;;;;25.82;45.33;100417.72;6190160;23;46488;-64
2023/06/10 01:45:21;;;;;;;;;9.33;8.33;;;;;25.68;45.16;100425.63;6187556;23;45494;-65
2023/06/10 01:47:47;;;;;;;;;6.33;6.33;;;;;25.65;45.48;100437.56;6191090;22;45683;-63
2023/06/10 01:50:12;;;;;;;;;13.00;8.67;;;;;25.55;45.41;100441.66;6188370;23;45233;-62
2023/06/10 01:52:38;;;;;;;;;8.00;8.00;;;;;25.46;46.10;100442.00;6189603;22;45421;-63
2023/06/10 01:55:04;;;;;;;;;9.33;7.67;;;;;24.82;46.06;100347.91;6189400;22;45296;-64
2023/06/10 01:57:30;;;;;;;;;9.00;8.00;;;;;25.28;46.36;100436.34;6190712;22;44996;-64
2023/06/10 01:59:55;;;;;;;;;11.00;8.33;;;;;25.26;46.43;100448.25;6187273;23;44903;-64
2023/06/10 02:02:21;;;;;;;;;8.00;6.67;;;;;25.20;46.95;100441.19;6189796;23;45631;-64
2023/06/10 02:04:47;;;;;;;;;7.00;7.00;;;;;25.12;46.21;100419.59;6190763;22;44929;-64
2023/06/10 02:07:12;;;;;;;;;5.67;4.33;;;;;25.32;46.83;100448.91;6191130;22;45327;-65
2023/06/10 02:09:37;;;;;;;;;7.00;6.00;;;;;25.34;46.45;100451.59;6189117;22;45269;-63
2023/06/10 02:12:04;;;;;;;;;6.67;6.67;;;;;25.33;46.74;100442.50;6188721;23;45389;-63
2023/06/10 02:14:32;;;;;;;;;6.67;6.00;;;;;25.15;46.93;100426.81;6189616;22;44977;-64
2023/06/10 02:16:57;;;;;;;;;9.33;8.00;;;;;25.30;46.71;100444.47;6191119;22;45087;-64
2023/06/10 02:19:23;;;;;;;;;8.00;6.67;;;;;24.99;46.52;100383.66;6190265;22;44908;-64
2023/06/10 02:21:48;;;;;;;;;9.00;8.00;;;;;25.34;46.39;100440.66;6189459;23;45549;-65
2023/06/10 02:24:14;;;;;;;;;10.33;9.67;;;;;25.38;46.32;100448.69;6189708;22;45184;-63
2023/06/10 02:26:40;;;;;;;;;8.33;8.33;;;;;25.40;46.22;100445.88;6188117;22;45385;-63
2023/06/10 02:29:06;;;;;;;;;10.33;8.00;;;;;25.33;46.45;100437.03;6189700;22;45517;-64
2023/06/10 02:31:31;;;;;;;;;7.00;7.00;;;;;25.34;46.35;100440.66;6189794;22;45306;-64
2023/06/10 02:33:57;;;;;;;;;7.67;7.67;;;;;25.39;46.36;100449.56;6191006;22;44883;-63
2023/06/10 02:36:23;;;;;;;;;8.67;8.67;;;;;25.31;46.48;100429.84;6190884;23;45102;-64
2023/06/10 02:38:49;;;;;;;;;9.00;7.33;;;;;25.37;46.36;100446.00;6190932;22;45309;-64
2023/06/10 02:41:14;;;;;;;;;7.67;7.00;;;;;25.38;46.49;100453.28;6189952;22;46491;-64
2023/06/10 02:43:41;;;;;;;;;7.00;7.00;;;;;25.40;46.22;100450.47;6188976;23;44838;-64
2023/06/10 02:46:07;;;;;;;;;8.00;6.33;;;;;25.33;46.59;100444.38;6189905;23;45189;-64
2023/06/10 02:48:46;;;;;;;;;8.00;6.33;;;;;25.35;46.62;100450.66;6190267;22;45255;-63
2023/06/10 02:51:11;;;;;;;;;8.67;7.33;;;;;25.30;46.73;100441.75;6189310;23;45267;-64
2023/06/10 02:53:37;;;;;;;;;9.00;7.33;;;;;25.31;46.71;100444.41;6189393;22;45117;-63
2023/06/10 02:56:02;;;;;;;;;9.67;8.00;;;;;25.25;46.68;100449.22;6189949;22;45053;-63
2023/06/10 02:58:28;;;;;;;;;9.00;6.33;;;;;25.22;47.15;100454.78;6190188;22;45090;-64
2023/06/10 03:00:53;;;;;;;;;7.00;7.00;;;;;25.04;47.33;100446.34;6189119;23;46919;-64
2023/06/10 03:03:20;;;;;;;;;17.50;17.00;;;;;25.01;47.79;100449.19;6189991;22;45179;-64
2023/06/10 03:05:45;;;;;;;;;8.67;6.33;;;;;25.01;47.56;100454.66;6189809;22;45062;-64
2023/06/10 03:08:10;;;;;;;;;7.00;7.00;;;;;24.98;47.64;100452.94;6190975;23;45060;-64
2023/06/10 03:10:36;;;;;;;;;6.67;6.00;;;;;24.90;47.85;100452.34;6189880;23;48078;-63
2023/06/10 03:13:01;;;;;;;;;6.33;5.67;;;;;24.95;47.78;100455.78;6189339;23;49912;-65
2023/06/10 03:15:28;;;;;;;;;6.33;6.00;;;;;24.93;47.00;100454.06;6190668;22;45059;-65
2023/06/10 03:17:54;;;;;;;;;7.00;6.00;;;;;24.95;47.65;100452.19;6191322;22;45020;-63
2023/06/10 03:20:21;;;;;;;;;6.00;6.00;;;;;24.91;47.93;100459.56;6190022;22;45258;-64
2023/06/10 03:22:46;;;;;;;;;7.67;7.00;;;;;24.93;47.77;100462.25;6189910;22;44972;-65
2023/06/10 03:25:13;;;;;;;;;9.33;5.67;;;;;24.94;47.14;100464.94;6190740;23;45104;-65
2023/06/10 03:27:42;;;;;;;;;6.00;5.33;;;;;24.95;47.42;100468.59;6190722;23;45096;-64
2023/06/10 03:30:08;;;;;;;;;9.33;9.00;;;;;24.74;47.44;100427.44;6190268;22;52968;-64
2023/06/10 03:32:35;;;;;;;;;5.33;5.33;;;;;24.84;47.43;100453.47;6190251;22;45174;-66
2023/06/10 03:35:01;;;;;;;;;7.33;7.00;;;;;24.86;47.92;100463.44;6190373;22;44921;-65
2023/06/10 03:37:26;;;;;;;;;11.00;8.00;;;;;24.75;47.45;100444.72;6189843;22;45206;-65
2023/06/10 03:39:51;;;;;;;;;10.33;6.67;;;;;24.65;47.76;100436.88;6189615;22;45759;-63
2023/06/10 03:42:17;;;;;;;;;9.00;9.00;;;;;24.76;47.88;100455.59;6191247;22;45093;-64
2023/06/10 03:44:42;;;;;;;;;7.00;7.00;;;;;24.66;48.01;100451.41;6191093;22;44940;-68
2023/06/10 03:47:08;;;;;;;;;7.00;6.00;;;;;24.64;47.68;100456.94;6191043;22;44856;-63
2023/06/10 03:49:33;;;;;;;;;7.33;5.00;;;;;24.58;48.47;100464.47;6189494;23;46151;-65
2023/06/10 03:51:59;;;;;;;;;5.67;4.33;;;;;24.52;48.32;100468.28;6189920;23;48114;-63
2023/06/10 03:54:24;;;;;;;;;8.00;7.00;;;;;24.49;48.23;100462.06;6190742;23;45048;-64
2023/06/10 03:56:50;;;;;;;;;8.00;6.33;;;;;24.41;48.16;100456.84;6190122;23;44937;-63
2023/06/10 03:59:15;;;;;;;;;8.33;7.33;;;;;24.47;48.35;100470.28;6189524;22;45242;-65
2023/06/10 04:01:41;;;;;;;;;9.00;6.67;;;;;24.52;47.93;100475.56;6188604;23;45053;-65
2023/06/10 04:04:07;;;;;;;;;5.33;5.33;;;;;24.51;48.49;100471.94;6190451;22;45298;-63
2023/06/10 04:06:32;;;;;;;;;6.00;6.00;;;;;24.46;47.98;100474.84;6189339;23;44960;-63
2023/06/10 04:08:58;;;;;;;;;5.33;4.00;;;;;24.34;48.62;100479.88;6189966;23;44944;-64
2023/06/10 04:11:24;;;;;;;;;10.33;5.67;;;;;24.25;48.46;100481.06;6191304;22;45113;-64
2023/06/10 04:13:50;;;;;;;;;7.00;7.00;;;;;24.19;48.67;100482.19;6190492;22;45121;-64
2023/06/10 04:16:15;;;;;;;;;4.00;4.00;;;;;24.10;48.93;100491.59;6190827;23;45014;-63
2023/06/10 04:18:41;;;;;;;;;6.33;5.00;;;;;24.01;49.18;100485.53;6190046;22;45791;-64
2023/06/10 04:21:08;;;;;;;;;6.67;6.33;;;;;23.89;49.49;100487.72;6190872;22;45071;-64
2023/06/10 04:23:34;;;;;;;;;7.00;7.00;;;;;23.84;49.88;100489.72;6191183;22;45160;-64
2023/06/10 04:26:00;;;;;;;;;4.67;4.67;;;;;23.85;49.80;100487.88;6190042;22;45088;-64
2023/06/10 04:28:25;;;;;;;;;11.67;6.67;;;;;23.82;49.89;100487.94;6189981;22;45622;-63
2023/06/10 04:30:50;;;;;;;;;6.33;6.33;;;;;23.82;50.02;100487.94;6190333;23;44932;-63
2023/06/10 04:33:16;;;;;;;;;8.00;7.67;;;;;23.77;50.13;100489.94;6190605;22;44959;-63
2023/06/10 04:35:42;;;;;;;;;7.00;7.00;;;;;23.87;50.25;100502.34;6190939;22;45039;-64
2023/06/10 04:38:07;;;;;;;;;5.00;3.00;;;;;23.94;49.94;100501.22;6189285;23;47393;-63
2023/06/10 04:40:33;;;;;;;;;5.33;5.33;;;;;23.98;49.63;100502.00;6190037;22;45112;-64
2023/06/10 04:42:58;;;;;;;;;5.33;5.33;;;;;24.07;49.16;100508.06;6189381;23;45157;-63
2023/06/10 04:45:23;;;;;;;;;5.33;5.33;;;;;24.00;49.17;100487.34;6190282;22;44861;-65
2023/06/10 04:47:49;;;;;;;;;7.33;6.33;;;;;24.12;49.27;100507.88;6190243;23;45138;-64
2023/06/10 04:50:15;;;;;;;;;8.67;6.00;;;;;24.01;49.60;100508.25;6191656;23;44891;-63
2023/06/10 04:52:44;;;;;;;;;6.00;6.00;;;;;23.94;49.78;100506.69;6192544;22;45117;-63
2023/06/10 04:55:10;;;;;;;;;6.33;6.33;;;;;23.90;50.07;100514.06;6191044;23;45166;-63
2023/06/10 04:57:36;;;;;;;;;4.67;4.67;;;;;23.66;50.44;100480.25;6191231;23;45573;-63
2023/06/10 05:00:03;;;;;;;;;12.67;7.33;;;;;23.82;50.56;100507.03;6191510;22;44929;-64
2023/06/10 05:02:29;;;;;;;;;6.33;4.33;;;;;23.90;50.19;100516.78;6192704;22;44945;-63
2023/06/10 05:04:54;;;;;;;;;8.67;7.00;;;;;23.88;50.10;100515.94;6192819;23;45102;-63
2023/06/10 05:07:20;;;;;;;;;5.33;4.67;;;;;23.81;50.08;100508.88;6192526;22;46276;-63
2023/06/10 05:09:45;;;;;;;;;8.00;7.33;;;;;23.84;50.19;100516.09;6191029;23;45297;-63
2023/06/10 05:12:11;;;;;;;;;4.33;4.33;;;;;23.84;50.40;100529.72;6192781;22;44925;-64
2023/06/10 05:14:36;;;;;;;;;6.00;6.00;;;;;23.83;50.21;100514.31;6193308;22;44921;-63
2023/06/10 05:17:02;;;;;;;;;8.33;8.33;;;;;23.83;50.18;100507.03;6192029;23;45558;-63
2023/06/10 05:19:27;;;;;;;;;6.33;5.00;;;;;23.87;50.19;100503.25;6192745;22;44972;-63
2023/06/10 05:21:52;;;;;;;;;6.67;6.67;;;;;24.03;49.83;100530.91;6192379;23;44841;-66
2023/06/10 05:24:18;;;;;;;;;4.33;4.33;;;;;24.10;49.56;100524.34;6192810;22;44850;-64
2023/06/10 05:26:44;;;;;;;;;5.33;5.00;;;;;24.15;50.01;100529.63;6190874;23;45354;-64
2023/06/10 05:29:09;;;;;;;;;8.33;7.33;;;;;24.07;49.74;100535.34;6191642;22;44998;-62
2023/06/10 05:31:35;;;;;;;;;7.33;7.33;;;;;24.06;49.68;100522.63;6190723;23;45208;-64
2023/06/10 05:34:00;;;;;;;;;10.00;8.00;;;;;24.13;49.58;100536.97;6191391;23;45258;-63
2023/06/10 05:36:26;;;;;;;;;6.33;6.33;;;;;24.10;49.80;100528.88;6192573;22;45609;-63
2023/06/10 05:38:51;;;;;;;;;6.67;5.33;;;;;24.13;50.15;100525.16;6192304;22;45195;-65
2023/06/10 05:41:17;;;;;;;;;7.00;7.00;;;;;24.11;49.66;100522.50;6191728;22;45015;-64
2023/06/10 05:43:42;;;;;;;;;9.00;7.33;;;;;23.98;50.01;100518.38;6190714;23;45162;-63
2023/06/10 05:46:08;;;;;;;;;8.00;7.00;;;;;24.06;49.88;100533.56;6191718;23;45043;-63
2023/06/10 05:48:33;;;;;;;;;11.67;7.67;;;;;24.13;49.65;100538.81;6190352;23;44972;-63
2023/06/10 05:50:59;;;;;;;;;9.67;8.00;;;;;24.10;49.70;100537.06;6191383;22;44955;-63
2023/06/10 05:53:24;;;;;;;;;6.33;5.33;;;;;24.09;49.64;100530.72;6192268;23;45188;-64
2023/06/10 05:55:50;;;;;;;;;8.33;8.00;;;;;24.20;49.65;100532.19;6189750;23;47852;-64
2023/06/10 05:58:15;;;;;;;;;5.33;5.33;;;;;24.15;49.52;100517.81;6191494;23;45011;-64
2023/06/10 06:00:41;;;;;;;;;8.33;6.67;;;;;24.28;49.12;100530.09;6191146;23;45136;-64
2023/06/10 06:03:10;;;;;;;;;11.33;6.00;;;;;24.34;49.29;100543.56;6191548;23;44861;-63
2023/06/10 06:05:37;;;;;;;;;9.67;7.00;;;;;24.27;49.22;100525.59;6190365;23;47482;-64
2023/06/10 06:08:05;;;;;;;;;7.67;6.67;;;;;24.31;49.80;100530.00;6190818;22;44973;-64
2023/06/10 06:10:31;;;;;;;;;7.00;7.00;;;;;24.23;49.97;100543.91;6191827;22;45080;-63
2023/06/10 06:12:57;;;;;;;;;8.33;7.67;;;;;24.21;50.16;100539.47;6191482;22;44954;-64
2023/06/10 06:15:22;;;;;;;;;7.00;7.00;;;;;24.07;49.91;100528.97;6190997;23;45516;-63
2023/06/10 06:17:48;;;;;;;;;8.00;6.67;;;;;23.78;50.39;100495.34;6190158;23;44865;-63
2023/06/10 06:20:13;;;;;;;;;9.00;7.33;;;;;24.09;50.48;100551.69;6190965;22;44834;-65
2023/06/10 06:22:39;;;;;;;;;9.00;5.00;;;;;24.06;50.43;100539.00;6191137;22;45186;-64
2023/06/10 06:25:05;;;;;;;;;10.33;7.33;;;;;24.20;50.22;100545.84;6190474;22;46023;-64
2023/06/10 06:27:31;;;;;;;;;9.33;7.67;;;;;24.31;50.03;100543.66;6192294;22;44919;-66
2023/06/10 06:29:56;;;;;;;;;7.67;6.67;;;;;24.35;50.27;100537.13;6191757;22;45134;-66
2023/06/10 06:32:22;;;;;;;;;7.00;7.00;;;;;24.49;49.95;100550.31;6190944;23;45337;-64
2023/06/10 06:34:50;;;;;;;;;10.33;7.00;;;;;24.50;49.78;100543.94;6191576;22;45682;-66
2023/06/10 06:37:15;;;;;;;;;7.00;7.00;;;;;24.61;50.09;100552.66;6191787;23;45046;-65
2023/06/10 06:39:41;;;;;;;;;6.00;6.00;;;;;24.72;49.61;100554.13;6191191;23;45071;-65
2023/06/10 06:42:07;;;;;;;;;6.00;6.00;;;;;24.80;49.74;100558.38;6191584;23;45198;-63
2023/06/10 06:44:32;;;;;;;;;24.75;21.25;;;;;24.86;49.80;100549.03;6190555;23;45353;-65
2023/06/10 06:46:57;;;;;;;;;9.33;8.33;;;;;24.94;49.29;100562.44;6190788;23;45008;-64
2023/06/10 06:49:23;;;;;;;;;9.67;8.67;;;;;24.93;49.73;100558.81;6190405;22;45073;-66
2023/06/10 06:51:48;;;;;;;;;28.00;25.50;;;;;24.87;49.73;100553.56;6191311;23;44887;-64
2023/06/10 06:54:14;;;;;;;;;6.33;5.00;;;;;24.97;49.66;100557.75;6190898;23;45014;-66
2023/06/10 06:56:39;;;;;;;;;7.00;7.00;;;;;25.09;49.30;100561.88;6190129;23;44973;-65
2023/06/10 06:59:05;;;;;;;;;6.67;6.67;;;;;25.14;49.27;100562.59;6190908;22;44934;-66
2023/06/10 07:01:33;;;;;;;;;8.33;7.67;;;;;25.12;49.37;100558.16;6188507;23;45061;-64
2023/06/10 07:03:58;;;;;;;;;20.00;16.33;;;;;25.29;49.32;100569.38;6189668;22;47785;-63
2023/06/10 07:06:24;;;;;;;;;9.00;7.67;;;;;25.40;49.00;100577.16;6179972;23;45680;-67
2023/06/10 07:08:51;;;;;;;;;7.00;7.00;;;;;25.43;49.29;100565.22;6189293;22;44931;-65
2023/06/10 07:11:17;;;;;;;;;7.33;6.33;;;;;25.46;48.90;100566.00;6181025;23;45153;-65
2023/06/10 07:13:43;;;;;;;;;3.33;3.33;;;;;25.45;49.41;100566.06;6178815;23;47176;-65
2023/06/10 07:16:08;;;;;;;;;9.33;5.33;;;;;25.36;49.31;100568.19;6176827;22;45513;-64
2023/06/10 07:18:34;;;;;;;;;6.00;6.00;;;;;25.31;49.75;100562.00;6183212;22;45387;-66
2023/06/10 07:20:59;;;;;;;;;8.33;7.00;;;;;25.24;50.26;100560.41;6184477;22;45496;-64
2023/06/10 07:23:24;;;;;;;;;9.67;8.33;;;;;25.31;49.79;100564.75;6187174;23;45192;-64
2023/06/10 07:25:50;;;;;;;;;7.00;3.67;;;;;25.29;49.83;100560.28;6176712;23;45307;-63
2023/06/10 07:28:16;;;;;;;;;7.00;7.00;;;;;25.31;49.76;100564.75;6178438;22;45452;-64
2023/06/10 07:30:52;;;;;;;;;8.33;6.67;;;;;25.34;49.81;100572.84;6188316;22;45362;-66
2023/06/10 07:33:20;;;;;;;;;6.00;6.00;;;;;25.31;49.95;100572.03;6182933;23;45478;-64
2023/06/10 07:35:51;;;;;;;;;6.00;6.00;;;;;25.29;50.40;100571.22;6189482;23;44927;-69
2023/06/10 07:38:17;;;;;;;;;8.00;6.00;;;;;25.23;50.66;100561.38;6187848;23;45074;-64
2023/06/10 07:40:43;;;;;;;;;8.33;6.00;;;;;25.28;50.33;100563.97;6183123;22;45295;-64
2023/06/10 07:43:08;;;;;;;;;8.00;7.67;;;;;25.32;50.67;100568.38;6178594;22;46146;-65
2023/06/10 07:45:33;;;;;;;;;7.33;6.00;;;;;25.42;50.38;100578.00;6181939;22;45409;-66
2023/06/10 07:47:59;;;;;;;;;7.33;5.67;;;;;25.45;50.61;100579.72;6185026;23;45651;-65
2023/06/10 07:50:24;;;;;;;;;7.00;5.67;;;;;25.47;50.31;100586.91;6191282;23;44835;-65
2023/06/10 07:52:50;;;;;;;;;8.33;8.00;;;;;25.48;50.45;100587.84;6188105;23;45058;-64
2023/06/10 07:55:15;;;;;;;;;9.33;7.33;;;;;25.44;49.99;100581.59;6191383;23;45038;-64
2023/06/10 07:57:41;;;;;;;;;7.33;7.33;;;;;25.48;50.80;100591.44;6191374;22;44905;-64
2023/06/10 08:00:07;;;;;;;;;7.00;7.00;;;;;25.47;49.85;100575.97;6179971;23;45454;-64
2023/06/10 08:02:32;;;;;;;;;7.00;6.33;;;;;25.67;49.58;100590.72;6178346;22;46036;-66
2023/06/10 08:04:57;;;;;;;;;8.67;8.67;;;;;25.61;49.35;100580.94;6178130;23;45429;-67
2023/06/10 08:07:23;;;;;;;;;6.67;5.00;;;;;25.78;49.73;100596.69;6186892;23;45613;-68
2023/06/10 08:09:49;;;;;;;;;8.33;7.00;;;;;25.85;48.94;100603.69;6179307;22;45249;-64
2023/06/10 08:12:15;;;;;;;;;7.00;7.00;;;;;25.91;49.08;100605.31;6178996;23;45524;-65
2023/06/10 08:14:40;;;;;;;;;8.00;7.67;;;;;26.00;49.13;100599.47;6180822;22;45369;-66
2023/06/10 08:17:06;;;;;;;;;7.67;7.67;;;;;26.22;48.24;100609.59;6189965;23;45272;-63
2023/06/10 08:19:31;;;;;;;;;7.00;6.67;;;;;26.42;48.29;100606.03;6213424;22;45212;-67
2023/06/10 08:21:57;;;;;;;;;10.33;8.67;;;;;26.55;47.83;100604.53;6189363;23;45200;-65
2023/06/10 08:24:22;;;;;;;;;7.00;6.33;;;;;26.62;47.61;100591.47;6189894;23;45110;-69
2023/06/10 08:26:48;;;;;;;;;8.33;8.00;;;;;26.72;47.37;100613.94;6187646;22;45556;-65
2023/06/10 08:29:13;;;;;;;;;12.33;6.33;;;;;26.71;47.32;100603.91;6185498;23;45315;-66
2023/06/10 08:31:43;;;;;;;;;7.67;5.00;;;;;26.77;47.09;100606.38;6180594;23;45800;-64
2023/06/10 08:34:09;;;;;;;;;7.67;7.00;;;;;26.79;46.88;100605.34;6181976;23;45239;-66
2023/06/10 08:36:35;;;;;;;;;14.33;12.67;;;;;26.90;46.41;100610.38;6184189;23;45290;-66
2023/06/10 08:39:01;;;;;;;;;8.00;7.00;;;;;27.07;45.80;100615.09;6182251;22;45389;-65
2023/06/10 08:41:30;;;;;;;;;6.67;6.67;;;;;27.10;45.42;100575.69;6179894;23;46665;-67
2023/06/10 08:44:20;;;;;;;;;9.00;7.00;;;;;27.10;44.85;100554.66;6190969;22;45078;-66
2023/06/10 08:46:46;;;;;;;;;4.67;4.67;;;;;27.50;45.05;100596.72;6189452;22;45183;-63
2023/06/10 08:49:20;;;;;;;;;5.67;5.67;;;;;27.65;44.84;100594.22;6191727;22;45091;-65
2023/06/10 08:51:50;;;;;;;;;9.00;9.00;;;;;27.68;44.02;100572.13;6191272;22;45465;-63
2023/06/10 08:54:21;;;;;;;;;10.00;7.00;;;;;27.84;44.12;100600.63;6190754;22;44965;-63
2023/06/10 08:56:51;;;;;;;;;5.67;5.33;;;;;27.75;44.12;100598.31;6191848;22;44901;-63
2023/06/10 08:59:17;;;;;;;;;7.00;6.33;;;;;27.66;44.64;100602.41;6191306;22;45263;-62
2023/06/10 09:01:43;;;;;;;;;10.00;6.67;;;;;27.65;44.67;100596.97;6189898;23;46487;-64
2023/06/10 09:04:10;;;;;;;;;6.00;5.67;;;;;27.62;44.39;100597.13;6189427;22;45047;-62
2023/06/10 09:06:37;;;;;;;;;6.33;5.00;;;;;27.58;44.26;100599.13;6189997;22;45134;-63
2023/06/10 09:09:06;;;;;;;;;5.67;4.67;;;;;27.68;44.25;100608.69;6191157;22;45476;-65
2023/06/10 09:11:31;;;;;;;;;6.67;5.00;;;;;27.70;44.01;100608.63;6190863;22;45171;-64
2023/06/10 09:13:57;;;;;;;;;5.67;5.33;;;;;27.75;43.80;100601.97;6188964;23;45421;-62
2023/06/10 09:16:24;;;;;;;;;3.67;3.67;;;;;27.90;43.57;100599.44;6190587;22;45193;-63
2023/06/10 09:18:54;;;;;;;;;5.33;5.33;;;;;27.99;43.44;100604.53;6189730;22;45161;-63
2023/06/10 09:21:22;;;;;;;;;6.00;6.00;;;;;28.01;43.32;100605.31;6190612;22;46547;-63
2023/06/10 09:23:48;;;;;;;;;7.67;5.00;;;;;28.00;43.05;100602.66;6187167;22;45452;-64
2023/06/10 09:26:14;;;;;;;;;5.00;4.67;;;;;28.14;42.90;100600.13;6185774;23;45468;-63
2023/06/10 09:28:42;;;;;;;;;6.00;4.33;;;;;28.22;42.95;100597.00;6186428;23;45222;-63
2023/06/10 09:31:08;;;;;;;;;5.33;5.33;;;;;28.30;42.56;100590.16;6177256;23;46991;-63
2023/06/10 09:33:39;;;;;;;;;8.67;6.67;;;;;28.55;42.41;100601.78;6177608;23;45380;-67
2023/06/10 09:36:05;;;;;;;;;7.00;5.00;;;;;28.59;41.93;100592.44;6177571;23;45271;-63
2023/06/10 09:38:34;;;;;;;;;5.00;5.00;;;;;28.72;41.61;100607.31;6179431;22;45362;-64
2023/06/10 09:41:03;;;;;;;;;5.33;4.00;;;;;28.70;41.56;100589.13;6179540;22;46317;-65
2023/06/10 09:43:43;;;;;;;;;6.67;6.00;;;;;28.93;40.68;100602.56;6179553;23;45421;-64
2023/06/10 09:46:17;;;;;;;;;11.33;9.67;;;;;28.99;40.93;100598.59;6179971;23;45314;-64
2023/06/10 09:48:46;;;;;;;;;5.67;5.33;;;;;29.01;39.88;100593.91;6180627;22;45284;-65
2023/06/10 09:51:16;;;;;;;;;2.67;2.67;;;;;29.17;39.72;100605.91;6177335;23;47054;-64
2023/06/10 09:53:48;;;;;;;;;5.67;5.67;;;;;29.22;39.75;100590.03;6178038;23;45406;-63
2023/06/10 09:56:14;;;;;;;;;6.33;5.00;;;;;29.23;39.08;100600.06;6177573;23;45453;-64
2023/06/10 09:58:43;;;;;;;;;4.33;4.33;;;;;29.23;39.72;100602.81;6180080;23;45507;-64
2023/06/10 10:01:10;;;;;;;;;3.67;3.67;;;;;29.29;39.24;100611.75;6180317;22;45296;-63
2023/06/10 10:03:51;;;;;;;;;4.00;4.00;;;;;29.26;39.77;100589.88;6179912;23;45358;-64
2023/06/10 10:06:18;;;;;;;;;6.00;6.00;;;;;29.22;38.89;100595.56;6180333;23;45453;-63
2023/06/10 10:08:46;;;;;;;;;5.00;5.00;;;;;29.28;38.79;100597.06;6177860;23;45508;-65
2023/06/10 10:11:12;;;;;;;;;6.33;4.00;;;;;29.37;37.94;100614.97;6178657;22;45889;-65
2023/06/10 10:13:38;;;;;;;;;5.00;5.00;;;;;29.33;37.52;100603.19;6179429;22;45581;-63
2023/06/10 10:16:10;;;;;;;;;5.33;4.67;;;;;29.28;37.63;100609.94;6180686;22;45505;-63
2023/06/10 10:18:41;;;;;;;;;5.00;5.00;;;;;29.17;37.86;100605.91;6178356;23;45342;-63
2023/06/10 10:21:15;;;;;;;;;9.00;6.67;;;;;29.08;38.24;100608.22;6177427;23;48407;-65
2023/06/10 10:23:53;;;;;;;;;5.33;5.33;;;;;29.05;38.03;100606.53;6179614;22;45499;-64
2023/06/10 10:26:25;;;;;;;;;7.00;6.00;;;;;28.81;38.36;100581.22;6180060;22;45409;-64
2023/06/10 10:29:02;;;;;;;;;7.00;7.00;;;;;28.90;38.03;100596.34;6179490;22;45547;-64
2023/06/10 10:31:32;;;;;;;;;5.33;5.33;;;;;29.06;38.23;100610.19;6178886;22;46313;-64
2023/06/10 10:33:59;;;;;;;;;7.00;4.00;;;;;29.20;38.67;100608.50;6180224;22;45371;-64
2023/06/10 10:36:26;;;;;;;;;5.00;3.33;;;;;29.13;38.07;100567.59;6179099;22;45516;-65
2023/06/10 10:38:51;;;;;;;;;7.00;4.33;;;;;29.41;37.34;100603.69;6177472;23;45294;-64
2023/06/10 10:41:18;;;;;;;;;7.33;6.33;;;;;29.35;37.19;100609.53;6179018;23;45243;-65
2023/06/10 10:43:46;;;;;;;;;7.00;5.33;;;;;29.28;37.26;100596.19;6178949;22;45457;-63
2023/06/10 10:46:13;;;;;;;;;9.33;6.67;;;;;29.36;37.04;100603.03;6178170;23;45385;-64
2023/06/10 10:48:41;;;;;;;;;6.67;6.00;;;;;29.38;36.79;100583.69;6180505;22;45237;-64
2023/06/10 10:51:07;;;;;;;;;5.67;5.67;;;;;29.36;37.78;100593.91;6177777;23;46726;-64
2023/06/10 10:53:33;;;;;;;;;5.67;5.67;;;;;29.17;36.96;100563.69;6177569;23;45377;-66
2023/06/10 10:56:18;;;;;;;;;7.33;5.00;;;;;29.40;36.85;100592.75;6179744;22;45486;-63
2023/06/10 10:59:04;;;;;;;;;7.33;7.33;;;;;29.51;37.14;100587.53;6177965;23;45476;-67
2023/06/10 11:01:46;;;;;;;;;7.33;6.00;;;;;29.56;37.21;100585.44;6176296;23;47278;-64
2023/06/10 11:04:12;;;;;;;;;8.00;7.33;;;;;29.63;36.58;100583.22;6176667;23;45403;-64
2023/06/10 11:06:51;;;;;;;;;7.67;6.00;;;;;29.57;36.96;100587.22;6203750;22;45652;-64
2023/06/10 11:09:29;;;;;;;;;6.33;6.33;;;;;29.60;36.93;100580.66;6179912;22;45617;-65
2023/06/10 11:11:59;;;;;;;;;5.33;5.33;;;;;29.66;36.79;100579.41;6179365;22;45299;-65
2023/06/10 11:14:29;;;;;;;;;4.67;4.67;;;;;29.68;37.31;100582.97;6180137;22;45576;-64
2023/06/10 11:16:57;;;;;;;;;6.33;6.00;;;;;29.74;36.67;100582.63;6177013;23;45545;-66
2023/06/10 11:19:34;;;;;;;;;6.00;6.00;;;;;29.71;37.59;100578.16;6179478;22;45334;-64
2023/06/10 11:22:02;;;;;;;;;7.00;6.00;;;;;29.75;36.88;100570.66;6176844;23;46786;-65
2023/06/10 11:24:30;;;;;;;;;6.67;6.67;;;;;29.87;36.22;100571.84;6178994;22;45386;-64